createdAt,value
2023-03-24T00:00:25.679Z,3.40
2023-03-24T00:01:19.535Z,3.40
2023-03-24T00:01:53.179Z,3.30
2023-03-24T00:02:28.891Z,3.70
2023-03-24T00:03:03.095Z,3.20
2023-03-24T00:03:41.512Z,3.70
2023-03-24T00:04:19.648Z,3.40
2023-03-24T00:05:05.781Z,3.50
2023-03-24T00:05:41.955Z,3.30
2023-03-24T00:06:15.622Z,3.10
2023-03-24T00:06:49.496Z,3.40
2023-03-24T00:07:29.640Z,3.70
2023-03-24T00:08:48.635Z,3.60
2023-03-24T00:09:37.412Z,3.20
2023-03-24T00:10:18.880Z,3.20
2023-03-24T00:10:53.495Z,3.20
2023-03-24T00:11:27.269Z,3.60
2023-03-24T00:12:00.886Z,3.40
2023-03-24T00:12:38.634Z,3.20
2023-03-24T00:13:12.250Z,3.10
2023-03-24T00:13:47.357Z,3.30
2023-03-24T00:14:21.041Z,3.30
2023-03-24T00:14:54.764Z,3.20
2023-03-24T00:15:28.557Z,3.20
2023-03-24T00:16:02.566Z,2.80
2023-03-24T00:16:38.625Z,3.20
2023-03-24T00:17:14.120Z,3.30
2023-03-24T00:17:52.836Z,3.20
2023-03-24T00:18:26.466Z,3.30
2023-03-24T00:19:00.160Z,2.80
2023-03-24T00:19:34.193Z,2.70
2023-03-24T00:20:17.216Z,3.00
2023-03-24T00:20:59.203Z,3.00
2023-03-24T00:21:33.613Z,2.90
2023-03-24T00:22:08.812Z,2.80
2023-03-24T00:22:49.035Z,2.90
2023-03-24T00:23:22.722Z,2.90
2023-03-24T00:23:58.602Z,3.30
2023-03-24T00:24:33.486Z,3.00
2023-03-24T00:25:07.362Z,3.10
2023-03-24T00:25:42.458Z,3.00
2023-03-24T00:26:17.935Z,3.10
2023-03-24T00:26:57.870Z,3.20
2023-03-24T00:27:39.402Z,3.00
2023-03-24T00:28:16.946Z,2.90
2023-03-24T00:28:51.576Z,3.00
2023-03-24T00:29:28.472Z,3.00
2023-03-24T00:30:05.580Z,3.30
2023-03-24T00:30:42.292Z,3.10
2023-03-24T00:31:17.625Z,3.10
2023-03-24T00:31:53.010Z,2.90
2023-03-24T00:32:27.736Z,2.90
2023-03-24T00:33:02.257Z,3.10
2023-03-24T00:33:40.665Z,2.70
2023-03-24T00:34:14.437Z,3.00
2023-03-24T00:34:49.474Z,2.90
2023-03-24T00:35:23.430Z,3.10
2023-03-24T00:35:58.693Z,3.20
2023-03-24T00:36:32.381Z,2.70
2023-03-24T00:37:06.960Z,3.10
2023-03-24T00:37:43.164Z,3.10
2023-03-24T00:38:16.738Z,3.10
2023-03-24T00:38:50.997Z,3.00
2023-03-24T00:39:24.740Z,2.80
2023-03-24T00:39:59.904Z,3.00
2023-03-24T00:40:33.354Z,3.00
2023-03-24T00:41:10.844Z,3.10
2023-03-24T00:41:46.109Z,2.90
2023-03-24T00:42:19.812Z,3.00
2023-03-24T00:42:54.167Z,2.90
2023-03-24T00:43:31.387Z,2.80
2023-03-24T00:44:06.846Z,3.00
2023-03-24T00:44:40.534Z,3.40
2023-03-24T00:45:23.386Z,3.20
2023-03-24T00:46:11.991Z,3.20
2023-03-24T00:46:55.571Z,3.30
2023-03-24T00:47:30.514Z,3.20
2023-03-24T00:48:05.514Z,3.30
2023-03-24T00:48:42.144Z,3.20
2023-03-24T00:49:17.669Z,3.20
2023-03-24T00:49:59.410Z,2.90
2023-03-24T00:50:33.869Z,3.00
2023-03-24T00:51:08.390Z,2.90
2023-03-24T00:51:43.122Z,3.00
2023-03-24T00:52:20.949Z,3.10
2023-03-24T00:52:56.330Z,3.00
2023-03-24T00:53:30.634Z,3.20
2023-03-24T00:54:05.704Z,2.90
2023-03-24T00:54:40.603Z,3.10
2023-03-24T00:55:16.136Z,3.20
2023-03-24T00:55:50.300Z,3.10
2023-03-24T00:56:29.672Z,3.20
2023-03-24T00:57:03.467Z,3.30
2023-03-24T00:57:37.254Z,3.40
2023-03-24T00:58:11.290Z,3.10
2023-03-24T00:58:45.001Z,3.50
2023-03-24T00:59:21.702Z,3.10
2023-03-24T00:59:56.813Z,2.90
2023-03-24T01:00:31.041Z,2.90
2023-03-24T01:01:06.997Z,3.00
2023-03-24T01:01:41.647Z,3.20
2023-03-24T01:02:20.479Z,3.10
2023-03-24T01:02:57.404Z,2.80
2023-03-24T01:03:34.514Z,3.00
2023-03-24T01:04:09.621Z,3.20
2023-03-24T01:04:47.527Z,3.80
2023-03-24T01:05:23.163Z,3.60
2023-03-24T01:06:03.162Z,3.40
2023-03-24T01:07:12.034Z,3.00
2023-03-24T01:07:46.310Z,3.00
2023-03-24T01:08:20.595Z,3.20
2023-03-24T01:08:55.237Z,3.40
2023-03-24T01:09:29.131Z,3.70
2023-03-24T01:10:03.008Z,3.30
2023-03-24T01:10:59.608Z,3.60
2023-03-24T01:11:38.897Z,3.20
2023-03-24T01:12:12.814Z,3.30
2023-03-24T01:12:46.540Z,3.60
2023-03-24T01:13:22.857Z,3.30
2023-03-24T01:13:56.888Z,3.00
2023-03-24T01:14:34.238Z,3.60
2023-03-24T01:15:17.992Z,3.10
2023-03-24T01:15:55.390Z,3.20
2023-03-24T01:16:30.480Z,3.40
2023-03-24T01:17:06.641Z,3.00
2023-03-24T01:17:40.420Z,3.30
2023-03-24T01:18:15.017Z,3.40
2023-03-24T01:18:49.711Z,3.60
2023-03-24T01:19:23.507Z,3.40
2023-03-24T01:19:57.690Z,3.10
2023-03-24T01:20:36.032Z,3.60
2023-03-24T01:21:11.742Z,3.30
2023-03-24T01:21:45.727Z,3.10
2023-03-24T01:22:20.839Z,3.40
2023-03-24T01:22:54.626Z,3.10
2023-03-24T01:23:30.928Z,3.20
2023-03-24T01:24:08.583Z,2.90
2023-03-24T01:24:43.911Z,3.20
2023-03-24T01:25:21.255Z,3.30
2023-03-24T01:25:55.178Z,2.90
2023-03-24T01:26:31.865Z,3.50
2023-03-24T01:27:06.109Z,3.10
2023-03-24T01:27:41.274Z,3.30
2023-03-24T01:28:27.658Z,3.40
2023-03-24T01:29:01.565Z,3.10
2023-03-24T01:29:42.829Z,3.40
2023-03-24T01:30:20.051Z,3.40
2023-03-24T01:30:54.718Z,3.10
2023-03-24T01:31:28.875Z,3.00
2023-03-24T01:32:04.236Z,3.40
2023-03-24T01:32:38.586Z,3.30
2023-03-24T01:33:12.342Z,3.10
2023-03-24T01:33:46.140Z,3.00
2023-03-24T01:34:19.853Z,3.40
2023-03-24T01:34:53.959Z,3.00
2023-03-24T01:35:29.574Z,2.90
2023-03-24T01:36:06.055Z,3.40
2023-03-24T01:36:42.956Z,3.40
2023-03-24T01:37:16.919Z,3.30
2023-03-24T01:37:50.715Z,3.10
2023-03-24T01:38:24.508Z,3.40
2023-03-24T01:39:01.499Z,3.20
2023-03-24T01:39:35.599Z,3.10
2023-03-24T01:40:12.757Z,3.10
2023-03-24T01:40:48.152Z,3.20
2023-03-24T01:41:22.039Z,3.00
2023-03-24T01:41:57.056Z,3.10
2023-03-24T01:42:31.127Z,3.50
2023-03-24T01:43:06.580Z,3.10
2023-03-24T01:43:40.723Z,3.20
2023-03-24T01:44:36.860Z,3.40
2023-03-24T01:45:40.558Z,3.20
2023-03-24T01:46:18.033Z,3.00
2023-03-24T01:46:53.920Z,3.10
2023-03-24T01:47:27.835Z,3.30
2023-03-24T01:48:01.970Z,2.80
2023-03-24T01:48:42.170Z,3.40
2023-03-24T01:49:16.873Z,3.10
2023-03-24T01:49:59.634Z,3.40
2023-03-24T01:50:33.542Z,3.00
2023-03-24T01:51:16.774Z,3.00
2023-03-24T01:51:56.128Z,3.00
2023-03-24T01:52:36.472Z,3.00
2023-03-24T01:53:10.220Z,3.10
2023-03-24T01:53:58.716Z,3.00
2023-03-24T01:54:38.980Z,3.30
2023-03-24T01:55:22.221Z,3.00
2023-03-24T01:55:58.077Z,3.00
2023-03-24T01:56:44.378Z,2.90
2023-03-24T01:57:29.562Z,3.20
2023-03-24T01:58:03.753Z,2.90
2023-03-24T01:58:57.122Z,3.20
2023-03-24T01:59:40.296Z,3.00
2023-03-24T02:00:22.273Z,3.00
2023-03-24T02:01:20.309Z,3.00
2023-03-24T02:02:08.391Z,3.20
2023-03-24T02:02:58.932Z,2.60
2023-03-24T02:03:42.319Z,3.00
2023-03-24T02:04:16.600Z,3.20
2023-03-24T02:04:59.088Z,2.90
2023-03-24T02:05:45.432Z,3.20
2023-03-24T02:06:20.389Z,3.10
2023-03-24T02:06:55.669Z,2.80
2023-03-24T02:07:44.609Z,2.80
2023-03-24T02:08:42.480Z,3.40
2023-03-24T02:09:18.444Z,2.90
2023-03-24T02:09:56.855Z,3.00
2023-03-24T02:10:35.583Z,3.00
2023-03-24T02:11:14.931Z,2.90
2023-03-24T02:12:01.204Z,2.70
2023-03-24T02:12:36.110Z,2.90
2023-03-24T02:13:13.213Z,3.10
2023-03-24T02:13:47.150Z,3.10
2023-03-24T02:14:21.047Z,3.30
2023-03-24T02:14:55.016Z,3.00
2023-03-24T02:15:31.465Z,3.40
2023-03-24T02:16:30.394Z,2.80
2023-03-24T02:17:49.512Z,3.20
2023-03-24T02:18:29.105Z,3.00
2023-03-24T02:19:25.229Z,3.30
2023-03-24T02:20:30.156Z,3.40
2023-03-24T02:21:33.774Z,3.30
2023-03-24T02:22:26.471Z,3.40
2023-03-24T02:23:14.808Z,3.10
2023-03-24T02:23:59.387Z,3.10
2023-03-24T02:25:03.241Z,3.50
2023-03-24T02:26:09.180Z,3.20
2023-03-24T02:27:05.345Z,3.30
2023-03-24T02:27:45.816Z,3.10
2023-03-24T02:28:30.294Z,3.50
2023-03-24T02:29:22.796Z,3.50
2023-03-24T02:30:15.034Z,3.30
2023-03-24T02:31:07.208Z,3.20
2023-03-24T02:31:59.717Z,2.90
2023-03-24T02:32:51.327Z,3.20
2023-03-24T02:33:58.386Z,3.20
2023-03-24T02:35:07.633Z,3.30
2023-03-24T02:36:13.341Z,3.50
2023-03-24T02:37:21.539Z,3.20
2023-03-24T02:38:22.824Z,3.30
2023-03-24T02:39:58.862Z,3.00
2023-03-24T02:40:35.303Z,2.90
2023-03-24T02:41:24.406Z,3.30
2023-03-24T02:42:14.606Z,3.30
2023-03-24T02:42:51.042Z,3.10
2023-03-24T02:45:25.043Z,2.80
2023-03-24T02:46:23.459Z,2.90
2023-03-24T02:47:09.666Z,2.80
2023-03-24T02:48:18.867Z,3.10
2023-03-24T02:52:00.047Z,3.10
2023-03-24T02:52:33.677Z,2.90
2023-03-24T02:53:26.386Z,3.10
2023-03-24T02:54:23.409Z,2.80
2023-03-24T02:54:59.971Z,3.00
2023-03-24T02:55:41.902Z,3.10
2023-03-24T02:56:30.220Z,3.10
2023-03-24T02:57:19.444Z,3.30
2023-03-24T02:58:22.272Z,3.00
2023-03-24T02:59:04.077Z,3.00
2023-03-24T02:59:49.719Z,2.90
2023-03-24T03:02:09.964Z,3.20
2023-03-24T03:02:56.486Z,2.90
2023-03-24T03:03:41.719Z,3.20
2023-03-24T03:04:22.545Z,3.20
2023-03-24T03:05:04.242Z,3.30
2023-03-24T03:05:55.934Z,3.30
2023-03-24T03:06:35.112Z,3.10
2023-03-24T03:07:12.950Z,3.10
2023-03-24T03:07:49.304Z,3.20
2023-03-24T03:08:25.027Z,3.50
2023-03-24T03:09:03.035Z,3.00
2023-03-24T03:09:41.730Z,2.90
2023-03-24T03:10:23.441Z,3.00
2023-03-24T03:10:59.588Z,3.00
2023-03-24T03:11:33.217Z,3.10
2023-03-24T03:12:10.449Z,3.00
2023-03-24T03:12:49.405Z,3.20
2023-03-24T03:13:32.625Z,3.10
2023-03-24T03:14:30.651Z,2.80
2023-03-24T03:15:10.636Z,3.00
2023-03-24T03:15:48.369Z,3.00
2023-03-24T03:16:38.568Z,2.90
2023-03-24T03:17:18.566Z,3.10
2023-03-24T03:18:00.249Z,2.80
2023-03-24T03:19:00.252Z,3.20
2023-03-24T03:19:41.431Z,2.80
2023-03-24T03:20:22.894Z,2.90
2023-03-24T03:21:02.782Z,3.20
2023-03-24T03:21:43.033Z,2.80
2023-03-24T03:22:23.247Z,3.00
2023-03-24T03:23:05.833Z,2.80
2023-03-24T03:23:44.540Z,3.20
2023-03-24T03:24:27.311Z,3.10
2023-03-24T03:25:04.472Z,2.70
2023-03-24T03:25:46.521Z,3.20
2023-03-24T03:26:24.326Z,2.90
2023-03-24T03:27:02.711Z,3.10
2023-03-24T03:27:40.831Z,3.00
2023-03-24T03:28:18.215Z,3.00
2023-03-24T03:28:58.194Z,3.10
2023-03-24T03:29:40.557Z,3.10
2023-03-24T03:30:25.222Z,3.20
2023-03-24T03:31:06.609Z,3.10
2023-03-24T03:31:45.389Z,3.20
2023-03-24T03:32:25.199Z,3.10
2023-03-24T03:33:07.355Z,3.10
2023-03-24T03:33:50.005Z,3.00
2023-03-24T03:34:38.395Z,3.20
2023-03-24T03:35:22.816Z,3.50
2023-03-24T03:36:14.570Z,3.00
2023-03-24T03:37:32.363Z,3.10
2023-03-24T03:38:15.892Z,3.20
2023-03-24T03:39:04.412Z,2.80
2023-03-24T03:39:44.079Z,3.00
2023-03-24T03:40:46.802Z,2.80
2023-03-24T03:41:23.683Z,2.90
2023-03-24T03:41:57.978Z,3.30
2023-03-24T03:42:32.241Z,2.90
2023-03-24T03:43:06.646Z,3.10
2023-03-24T03:43:40.524Z,2.90
2023-03-24T03:44:14.171Z,3.00
2023-03-24T03:44:48.216Z,2.60
2023-03-24T03:45:21.852Z,3.00
2023-03-24T03:45:55.909Z,2.90
2023-03-24T03:46:33.262Z,2.90
2023-03-24T03:47:07.030Z,2.90
2023-03-24T03:47:46.346Z,3.00
2023-03-24T03:48:20.693Z,3.20
2023-03-24T03:48:54.257Z,2.90
2023-03-24T03:49:28.305Z,3.00
2023-03-24T03:50:02.730Z,2.80
2023-03-24T03:50:39.346Z,3.00
2023-03-24T03:51:15.536Z,3.00
2023-03-24T03:52:01.212Z,2.80
2023-03-24T03:52:37.927Z,2.90
2023-03-24T03:53:15.125Z,3.00
2023-03-24T03:53:52.838Z,3.10
2023-03-24T03:54:29.889Z,2.90
2023-03-24T03:55:06.397Z,3.00
2023-03-24T03:55:41.739Z,3.00
2023-03-24T03:56:19.978Z,3.10
2023-03-24T03:57:02.628Z,2.80
2023-03-24T03:57:41.433Z,2.80
2023-03-24T03:58:33.753Z,3.10
2023-03-24T03:59:07.677Z,3.00
2023-03-24T03:59:41.474Z,3.10
2023-03-24T04:00:20.848Z,3.00
2023-03-24T04:01:14.432Z,2.80
2023-03-24T04:02:18.142Z,3.10
2023-03-24T04:02:52.831Z,2.70
2023-03-24T04:04:09.896Z,3.10
2023-03-24T04:05:35.457Z,2.90
2023-03-24T04:06:31.583Z,2.70
2023-03-24T04:07:34.198Z,2.90
2023-03-24T04:08:45.306Z,3.20
2023-03-24T04:09:51.774Z,2.90
2023-03-24T04:10:38.353Z,2.80
2023-03-24T04:11:33.103Z,3.30
2023-03-24T04:12:36.227Z,2.80
2023-03-24T04:13:50.204Z,3.10
2023-03-24T04:14:45.210Z,2.80
2023-03-24T04:15:47.557Z,2.90
2023-03-24T04:17:01.906Z,2.80
2023-03-24T04:17:53.953Z,2.90
2023-03-24T04:19:08.376Z,2.90
2023-03-24T04:19:44.534Z,3.10
2023-03-24T04:20:25.908Z,2.60
2023-03-24T04:21:36.507Z,3.10
2023-03-24T04:22:10.280Z,2.80
2023-03-24T04:23:14.599Z,3.20
2023-03-24T04:24:00.706Z,3.00
2023-03-24T04:24:50.057Z,2.80
2023-03-24T04:25:45.574Z,2.90
2023-03-24T04:26:28.428Z,2.80
2023-03-24T04:27:27.433Z,2.90
2023-03-24T04:28:26.756Z,3.10
2023-03-24T04:29:10.917Z,3.50
2023-03-24T04:29:54.701Z,3.00
2023-03-24T04:30:44.041Z,2.90
2023-03-24T04:31:49.645Z,3.20
2023-03-24T04:32:52.649Z,2.80
2023-03-24T04:33:46.650Z,2.60
2023-03-24T04:34:26.226Z,3.10
2023-03-24T04:35:07.693Z,3.30
2023-03-24T04:36:07.675Z,2.90
2023-03-24T04:37:16.850Z,3.10
2023-03-24T04:38:10.984Z,3.20
2023-03-24T04:38:53.542Z,3.20
2023-03-24T04:39:39.324Z,3.40
2023-03-24T04:40:17.585Z,3.30
2023-03-24T04:40:55.814Z,3.30
2023-03-24T04:41:30.784Z,3.20
2023-03-24T04:42:29.744Z,3.40
2023-03-24T04:43:08.714Z,3.10
2023-03-24T04:43:42.341Z,3.20
2023-03-24T04:44:21.968Z,3.60
2023-03-24T04:45:33.751Z,3.10
2023-03-24T04:46:28.230Z,3.50
2023-03-24T04:47:12.916Z,3.40
2023-03-24T04:47:54.759Z,3.70
2023-03-24T04:48:38.481Z,3.50
2023-03-24T04:50:04.134Z,3.10
2023-03-24T04:50:43.795Z,3.60
2023-03-24T04:51:21.537Z,3.20
2023-03-24T04:52:08.176Z,3.50
2023-03-24T04:52:43.313Z,3.50
2023-03-24T04:53:17.326Z,3.70
2023-03-24T04:53:51.129Z,3.50
2023-03-24T04:54:24.822Z,3.40
2023-03-24T04:55:02.929Z,3.40
2023-03-24T04:55:58.705Z,3.40
2023-03-24T04:57:02.132Z,3.40
2023-03-24T04:57:39.521Z,3.10
2023-03-24T04:58:13.241Z,3.20
2023-03-24T04:58:48.188Z,3.40
2023-03-24T04:59:21.687Z,3.70
2023-03-24T04:59:55.178Z,3.40
2023-03-24T05:00:28.812Z,3.30
2023-03-24T05:01:03.550Z,3.30
2023-03-24T05:01:37.865Z,3.60
2023-03-24T05:02:41.422Z,3.40
2023-03-24T05:03:21.631Z,3.80
2023-03-24T05:03:55.093Z,3.30
2023-03-24T05:04:30.416Z,3.50
2023-03-24T05:05:12.213Z,3.30
2023-03-24T05:05:54.195Z,3.40
2023-03-24T05:06:27.800Z,3.20
2023-03-24T05:07:01.961Z,3.40
2023-03-24T05:07:35.515Z,3.20
2023-03-24T05:08:12.204Z,3.40
2023-03-24T05:08:45.879Z,3.50
2023-03-24T05:09:21.585Z,3.50
2023-03-24T05:09:55.643Z,3.40
2023-03-24T05:10:29.046Z,3.40
2023-03-24T05:11:02.709Z,3.50
2023-03-24T05:11:38.028Z,3.20
2023-03-24T05:12:14.146Z,3.40
2023-03-24T05:13:08.378Z,3.50
2023-03-24T05:13:49.966Z,3.30
2023-03-24T05:14:23.974Z,3.40
2023-03-24T05:14:57.799Z,3.50
2023-03-24T05:15:31.946Z,3.60
2023-03-24T05:16:17.103Z,3.40
2023-03-24T05:16:59.249Z,3.20
2023-03-24T05:17:33.004Z,3.60
2023-03-24T05:18:07.356Z,3.30
2023-03-24T05:18:41.662Z,3.70
2023-03-24T05:19:15.790Z,3.60
2023-03-24T05:19:49.293Z,3.90
2023-03-24T05:20:23.921Z,3.80
2023-03-24T05:21:00.457Z,4.20
2023-03-24T05:21:35.163Z,4.10
2023-03-24T05:22:09.258Z,4.00
2023-03-24T05:22:43.286Z,3.60
2023-03-24T05:23:17.033Z,3.90
2023-03-24T05:23:51.055Z,4.00
2023-03-24T05:24:24.536Z,4.00
2023-03-24T05:24:57.964Z,4.20
2023-03-24T05:25:31.619Z,4.10
2023-03-24T05:26:05.994Z,3.90
2023-03-24T05:26:42.438Z,4.00
2023-03-24T05:27:22.025Z,3.80
2023-03-24T05:27:55.870Z,4.00
2023-03-24T05:28:31.670Z,4.00
2023-03-24T05:29:05.745Z,3.80
2023-03-24T05:29:40.071Z,4.00
2023-03-24T05:30:14.923Z,4.00
2023-03-24T05:30:48.927Z,4.30
2023-03-24T05:31:40.578Z,4.10
2023-03-24T05:32:21.150Z,4.00
2023-03-24T05:32:54.761Z,3.70
2023-03-24T05:33:28.198Z,4.20
2023-03-24T05:34:02.244Z,4.30
2023-03-24T05:34:36.312Z,4.10
2023-03-24T05:35:16.398Z,4.20
2023-03-24T05:35:50.030Z,4.30
2023-03-24T05:36:23.720Z,4.10
2023-03-24T05:37:01.350Z,3.90
2023-03-24T05:37:35.169Z,3.90
2023-03-24T05:38:09.766Z,4.00
2023-03-24T05:38:43.963Z,3.80
2023-03-24T05:39:17.592Z,3.90
2023-03-24T05:39:58.235Z,4.00
2023-03-24T05:41:01.110Z,4.00
2023-03-24T05:41:39.493Z,4.50
2023-03-24T05:42:12.948Z,4.60
2023-03-24T05:42:49.599Z,4.40
2023-03-24T05:43:23.157Z,4.20
2023-03-24T05:44:04.401Z,4.40
2023-03-24T05:44:38.028Z,4.20
2023-03-24T05:45:16.359Z,4.50
2023-03-24T05:45:49.939Z,4.10
2023-03-24T05:46:33.770Z,4.40
2023-03-24T05:47:07.739Z,4.40
2023-03-24T05:47:41.296Z,4.60
2023-03-24T05:48:15.022Z,4.60
2023-03-24T05:49:04.989Z,5.10
2023-03-24T05:49:44.787Z,4.70
2023-03-24T05:50:18.463Z,3.80
2023-03-24T05:50:53.197Z,4.50
2023-03-24T05:51:27.289Z,4.50
2023-03-24T05:52:09.339Z,4.70
2023-03-24T05:52:43.671Z,5.40
2023-03-24T05:53:37.255Z,5.10
2023-03-24T05:54:34.284Z,5.40
2023-03-24T05:55:20.184Z,5.40
2023-03-24T05:55:55.057Z,5.60
2023-03-24T05:56:54.650Z,5.60
2023-03-24T05:57:39.997Z,5.60
2023-03-24T05:58:34.804Z,5.50
2023-03-24T05:59:08.447Z,5.20
2023-03-24T05:59:57.878Z,4.70
2023-03-24T06:00:54.768Z,4.50
2023-03-24T06:01:34.823Z,4.60
2023-03-24T06:02:18.521Z,4.90
2023-03-24T06:03:14.372Z,5.00
2023-03-24T06:03:51.839Z,5.10
2023-03-24T06:04:25.550Z,5.20
2023-03-24T06:05:01.665Z,5.00
2023-03-24T06:05:36.196Z,5.50
2023-03-24T06:06:14.976Z,5.50
2023-03-24T06:06:48.593Z,5.30
2023-03-24T06:07:27.049Z,5.20
2023-03-24T06:08:02.210Z,5.00
2023-03-24T06:08:38.529Z,5.70
2023-03-24T06:09:12.575Z,5.40
2023-03-24T06:09:47.547Z,5.90
2023-03-24T06:10:22.458Z,5.60
2023-03-24T06:11:02.570Z,5.40
2023-03-24T06:11:36.623Z,5.00
2023-03-24T06:12:11.445Z,5.10
2023-03-24T06:12:47.004Z,5.40
2023-03-24T06:13:21.921Z,4.70
2023-03-24T06:13:59.959Z,4.80
2023-03-24T06:14:34.091Z,5.10
2023-03-24T06:15:17.741Z,5.00
2023-03-24T06:15:54.937Z,5.30
2023-03-24T06:16:40.234Z,4.60
2023-03-24T06:17:15.632Z,5.00
2023-03-24T06:17:54.943Z,4.90
2023-03-24T06:18:42.990Z,5.00
2023-03-24T06:19:31.034Z,4.90
2023-03-24T06:20:24.570Z,5.10
2023-03-24T06:21:11.401Z,5.00
2023-03-24T06:21:50.701Z,5.70
2023-03-24T06:22:25.854Z,5.70
2023-03-24T06:23:00.101Z,5.30
2023-03-24T06:23:41.365Z,5.50
2023-03-24T06:24:18.255Z,5.30
2023-03-24T06:24:53.988Z,4.90
2023-03-24T06:25:28.977Z,4.70
2023-03-24T06:26:19.376Z,4.90
2023-03-24T06:27:02.596Z,4.40
2023-03-24T06:27:38.764Z,4.90
2023-03-24T06:28:12.508Z,4.70
2023-03-24T06:28:46.458Z,4.50
2023-03-24T06:29:23.698Z,4.60
2023-03-24T06:29:58.508Z,5.00
2023-03-24T06:30:32.232Z,5.00
2023-03-24T06:31:07.005Z,5.00
2023-03-24T06:31:42.686Z,5.00
2023-03-24T06:32:21.496Z,5.20
2023-03-24T06:32:56.564Z,5.00
2023-03-24T06:33:30.306Z,5.20
2023-03-24T06:34:06.965Z,5.10
2023-03-24T06:34:40.811Z,5.50
2023-03-24T06:35:32.646Z,5.50
2023-03-24T06:36:16.410Z,5.50
2023-03-24T06:36:50.234Z,5.30
2023-03-24T06:37:23.922Z,4.90
2023-03-24T06:37:57.933Z,4.40
2023-03-24T06:38:31.427Z,4.90
2023-03-24T06:39:08.358Z,4.70
2023-03-24T06:39:42.106Z,4.90
2023-03-24T06:40:17.808Z,4.70
2023-03-24T06:41:03.842Z,4.50
2023-03-24T06:41:37.570Z,4.90
2023-03-24T06:42:13.990Z,5.20
2023-03-24T06:42:47.540Z,5.30
2023-03-24T06:43:21.072Z,5.50
2023-03-24T06:43:55.979Z,5.20
2023-03-24T06:44:29.426Z,4.70
2023-03-24T06:45:03.054Z,4.50
2023-03-24T06:45:39.606Z,4.70
2023-03-24T06:46:14.269Z,4.50
2023-03-24T06:46:49.038Z,4.20
2023-03-24T06:47:22.614Z,4.40
2023-03-24T06:47:56.918Z,4.80
2023-03-24T06:48:30.621Z,4.80
2023-03-24T06:49:09.486Z,5.50
2023-03-24T06:49:42.981Z,6.10
2023-03-24T06:50:17.124Z,5.90
2023-03-24T06:50:53.352Z,4.60
2023-03-24T06:51:27.461Z,5.30
2023-03-24T06:52:04.795Z,5.20
2023-03-24T06:52:41.424Z,4.50
2023-03-24T06:53:29.205Z,4.80
2023-03-24T06:54:03.570Z,5.10
2023-03-24T06:54:37.781Z,5.80
2023-03-24T06:55:11.611Z,6.00
2023-03-24T06:55:46.119Z,6.00
2023-03-24T06:56:21.337Z,5.90
2023-03-24T06:57:01.849Z,6.10
2023-03-24T06:57:46.233Z,5.20
2023-03-24T06:58:35.993Z,4.10
2023-03-24T06:59:14.709Z,4.90
2023-03-24T06:59:51.573Z,4.40
2023-03-24T07:00:26.136Z,4.80
2023-03-24T07:01:22.962Z,4.40
2023-03-24T07:02:00.054Z,4.60
2023-03-24T07:02:36.011Z,4.70
2023-03-24T07:03:10.036Z,4.70
2023-03-24T07:03:44.994Z,4.70
2023-03-24T07:04:38.061Z,4.70
2023-03-24T07:05:26.593Z,5.50
2023-03-24T07:06:00.760Z,4.60
2023-03-24T07:06:40.420Z,5.30
2023-03-24T07:08:36.697Z,5.70
2023-03-24T07:09:15.048Z,4.80
2023-03-24T07:09:48.590Z,5.30
2023-03-24T07:10:22.363Z,5.40
2023-03-24T07:10:56.299Z,5.30
2023-03-24T07:11:29.869Z,5.50
2023-03-24T07:12:08.100Z,5.40
2023-03-24T07:12:42.068Z,5.60
2023-03-24T07:13:15.679Z,5.10
2023-03-24T07:13:49.845Z,5.50
2023-03-24T07:14:29.030Z,5.40
2023-03-24T07:15:04.995Z,5.70
2023-03-24T07:15:38.509Z,5.50
2023-03-24T07:16:12.180Z,5.30
2023-03-24T07:16:46.417Z,5.80
2023-03-24T07:17:38.200Z,5.20
2023-03-24T07:18:26.634Z,5.20
2023-03-24T07:19:05.452Z,5.50
2023-03-24T07:19:41.545Z,5.40
2023-03-24T07:21:18.861Z,5.80
2023-03-24T07:21:52.582Z,5.40
2023-03-24T07:22:30.195Z,5.30
2023-03-24T07:24:24.142Z,5.40
2023-03-24T07:25:07.705Z,5.30
2023-03-24T07:26:07.454Z,5.90
2023-03-24T07:27:05.922Z,5.40
2023-03-24T07:27:42.843Z,5.60
2023-03-24T07:28:16.597Z,5.20
2023-03-24T07:28:50.655Z,5.40
2023-03-24T07:29:38.160Z,5.60
2023-03-24T07:30:40.668Z,5.40
2023-03-24T07:31:15.101Z,5.30
2023-03-24T07:31:51.350Z,5.50
2023-03-24T07:32:25.674Z,5.90
2023-03-24T07:33:03.160Z,5.60
2023-03-24T07:33:38.604Z,5.60
2023-03-24T07:34:12.457Z,5.40
2023-03-24T07:34:46.642Z,5.60
2023-03-24T07:35:20.299Z,5.60
2023-03-24T07:35:57.669Z,5.50
2023-03-24T07:36:31.982Z,5.60
2023-03-24T07:37:06.637Z,5.10
2023-03-24T07:37:41.133Z,5.30
2023-03-24T07:38:14.844Z,5.30
2023-03-24T07:38:49.060Z,5.20
2023-03-24T07:39:29.206Z,5.90
2023-03-24T07:40:12.393Z,5.00
2023-03-24T07:40:46.291Z,5.30
2023-03-24T07:41:19.896Z,5.40
2023-03-24T07:41:57.660Z,5.50
2023-03-24T07:42:43.342Z,5.20
2023-03-24T07:43:32.489Z,5.20
2023-03-24T07:44:13.604Z,5.40
2023-03-24T07:44:53.114Z,5.30
2023-03-24T07:45:28.921Z,5.10
2023-03-24T07:46:03.029Z,5.40
2023-03-24T07:46:36.777Z,5.60
2023-03-24T07:47:11.525Z,5.10
2023-03-24T07:47:46.422Z,5.50
2023-03-24T07:48:20.292Z,5.40
2023-03-24T07:48:53.873Z,5.10
2023-03-24T07:49:31.026Z,5.60
2023-03-24T07:50:12.158Z,5.70
2023-03-24T07:50:46.417Z,5.90
2023-03-24T07:51:44.449Z,5.70
2023-03-24T07:52:41.405Z,6.50
2023-03-24T07:53:18.798Z,6.00
2023-03-24T07:53:52.622Z,6.00
2023-03-24T07:54:37.013Z,6.20
2023-03-24T07:55:12.269Z,5.70
2023-03-24T07:55:59.370Z,5.50
2023-03-24T07:56:35.111Z,5.40
2023-03-24T07:57:10.506Z,5.30
2023-03-24T07:57:49.313Z,5.40
2023-03-24T07:58:22.876Z,5.40
2023-03-24T08:00:49.024Z,5.90
2023-03-24T08:01:33.046Z,5.80
2023-03-24T08:02:18.240Z,5.70
2023-03-24T08:03:09.856Z,5.80
2023-03-24T08:03:55.229Z,5.70
2023-03-24T08:04:53.904Z,5.80
2023-03-24T08:05:48.842Z,5.60
2023-03-24T08:06:26.963Z,5.80
2023-03-24T08:07:03.390Z,6.30
2023-03-24T08:07:37.621Z,6.70
2023-03-24T08:08:11.176Z,7.10
2023-03-24T08:08:45.187Z,6.40
2023-03-24T08:09:18.784Z,6.20
2023-03-24T08:09:52.326Z,6.70
2023-03-24T08:10:28.590Z,6.30
2023-03-24T08:11:03.122Z,6.70
2023-03-24T08:11:37.321Z,6.30
2023-03-24T08:12:20.075Z,6.60
2023-03-24T08:12:54.657Z,6.40
2023-03-24T08:13:29.637Z,5.90
2023-03-24T08:14:04.115Z,6.10
2023-03-24T08:14:37.682Z,6.30
2023-03-24T08:15:11.303Z,5.90
2023-03-24T08:15:44.844Z,6.30
2023-03-24T08:16:18.487Z,5.90
2023-03-24T08:16:52.164Z,5.90
2023-03-24T08:17:26.239Z,5.80
2023-03-24T08:18:04.553Z,5.80
2023-03-24T08:18:38.357Z,6.00
2023-03-24T08:19:12.021Z,6.20
2023-03-24T08:19:58.259Z,5.60
2023-03-24T08:20:33.081Z,5.30
2023-03-24T08:21:07.224Z,5.40
2023-03-24T08:21:41.350Z,5.40
2023-03-24T08:22:14.912Z,6.10
2023-03-24T08:22:50.273Z,5.50
2023-03-24T08:23:24.355Z,5.90
2023-03-24T08:23:57.818Z,5.40
2023-03-24T08:24:31.419Z,5.30
2023-03-24T08:25:07.564Z,5.20
2023-03-24T08:25:41.889Z,5.20
2023-03-24T08:26:15.491Z,5.50
2023-03-24T08:26:49.150Z,5.50
2023-03-24T08:27:22.939Z,5.60
2023-03-24T08:27:57.255Z,5.40
2023-03-24T08:28:30.905Z,5.60
2023-03-24T08:29:04.731Z,5.40
2023-03-24T08:29:38.161Z,5.60
2023-03-24T08:30:15.361Z,5.20
2023-03-24T08:30:49.209Z,5.40
2023-03-24T08:31:23.059Z,5.40
2023-03-24T08:31:56.721Z,5.20
2023-03-24T08:32:30.249Z,5.40
2023-03-24T08:33:04.402Z,5.40
2023-03-24T08:33:43.020Z,5.70
2023-03-24T08:34:16.616Z,5.50
2023-03-24T08:34:50.395Z,5.30
2023-03-24T08:35:33.250Z,5.80
2023-03-24T08:36:07.224Z,5.40
2023-03-24T08:36:41.633Z,5.50
2023-03-24T08:37:15.223Z,5.30
2023-03-24T08:37:48.812Z,5.70
2023-03-24T08:38:23.420Z,6.10
2023-03-24T08:38:57.255Z,6.10
2023-03-24T08:39:36.170Z,5.90
2023-03-24T08:40:14.307Z,5.90
2023-03-24T08:40:49.295Z,5.50
2023-03-24T08:41:35.253Z,6.00
2023-03-24T08:42:08.818Z,5.80
2023-03-24T08:42:42.548Z,5.60
2023-03-24T08:43:16.181Z,6.00
2023-03-24T08:43:49.571Z,5.80
2023-03-24T08:44:23.128Z,6.00
2023-03-24T08:44:56.621Z,6.00
2023-03-24T08:45:32.666Z,5.50
2023-03-24T08:46:10.616Z,5.80
2023-03-24T08:46:45.545Z,5.60
2023-03-24T08:47:19.161Z,6.10
2023-03-24T08:47:52.757Z,5.60
2023-03-24T08:48:27.368Z,5.10
2023-03-24T08:49:01.676Z,5.50
2023-03-24T08:49:35.126Z,5.50
2023-03-24T08:50:10.246Z,5.90
2023-03-24T08:50:43.914Z,5.30
2023-03-24T08:51:18.090Z,5.30
2023-03-24T08:51:51.651Z,5.80
2023-03-24T08:52:26.339Z,5.30
2023-03-24T08:52:59.869Z,5.20
2023-03-24T08:53:33.415Z,5.20
2023-03-24T08:54:07.870Z,5.30
2023-03-24T08:54:41.321Z,5.80
2023-03-24T08:55:16.763Z,5.50
2023-03-24T08:55:50.735Z,5.10
2023-03-24T08:56:25.925Z,5.20
2023-03-24T08:56:59.561Z,5.20
2023-03-24T08:57:33.102Z,5.70
2023-03-24T08:58:06.552Z,5.60
2023-03-24T08:58:40.023Z,5.50
2023-03-24T08:59:13.628Z,5.50
2023-03-24T08:59:48.480Z,5.10
2023-03-24T09:00:24.880Z,5.00
2023-03-24T09:00:58.319Z,4.80
2023-03-24T09:01:31.982Z,4.80
2023-03-24T09:02:05.829Z,5.00
2023-03-24T09:02:39.830Z,4.90
2023-03-24T09:03:18.718Z,4.80
2023-03-24T09:03:52.374Z,4.80